Time;durP1;ratioP1;P1;durP2;ratioP2;P2;SDS_P1;SDS_P2;PMS_P1;PMS_P2;Temp;Humidity;BMP_temperature;BMP_pressure;BME280_temperature;BME280_humidity;BME280_pressure;Samples;Min_cycle;Max_cycle;Signal;HPM_P1;HPM_P2
2022/06/01 00:01:11;;;;;;;11.95;10.73;;;11.80;99.90;;;;;;4938496;28;20549;-57
2022/06/01 00:03:40;;;;;;;11.07;9.98;;;11.80;99.90;;;;;;4958419;28;20082;-57
2022/06/01 00:06:06;;;;;;;11.25;10.05;;;11.70;99.90;;;;;;4948851;28;20070;-58
2022/06/01 00:08:33;;;;;;;12.40;11.13;;;11.70;99.90;;;;;;4939704;28;20113;-58
2022/06/01 00:10:59;;;;;;;12.13;10.85;;;11.70;99.90;;;;;;4930756;28;20418;-58
2022/06/01 00:13:26;;;;;;;13.98;11.60;;;11.70;99.90;;;;;;4933011;28;20158;-57
2022/06/01 00:15:52;;;;;;;13.52;11.95;;;11.70;99.90;;;;;;4931632;28;20533;-57
2022/06/01 00:18:18;;;;;;;16.27;14.55;;;11.70;99.90;;;;;;4921310;28;20549;-56
2022/06/01 00:20:45;;;;;;;15.18;12.48;;;11.70;99.90;;;;;;4948186;28;20129;-57
2022/06/01 00:23:11;;;;;;;14.50;13.10;;;11.70;99.90;;;;;;4933648;28;20117;-56
2022/06/01 00:25:37;;;;;;;16.50;13.93;;;11.70;99.90;;;;;;4928182;28;20471;-57
2022/06/01 00:28:03;;;;;;;12.18;10.82;;;11.60;99.90;;;;;;4945014;28;20054;-57
2022/06/01 00:30:29;;;;;;;15.55;11.98;;;11.60;99.90;;;;;;4928357;28;20047;-56
2022/06/01 00:32:55;;;;;;;11.32;10.05;;;11.60;99.90;;;;;;4932375;28;20047;-57
2022/06/01 00:35:23;;;;;;;12.45;11.15;;;11.60;99.90;;;;;;4950318;28;20027;-56
2022/06/01 00:37:49;;;;;;;13.45;12.13;;;11.60;99.90;;;;;;4929551;28;20057;-56
2022/06/01 00:40:18;;;;;;;15.13;13.52;;;11.60;99.90;;;;;;4936591;28;20055;-56
2022/06/01 00:42:47;;;;;;;12.00;10.57;;;11.60;99.90;;;;;;4931042;28;20539;-56
2022/06/01 00:45:16;;;;;;;14.38;12.88;;;11.60;99.90;;;;;;4950697;28;20134;-56
2022/06/01 00:47:42;;;;;;;15.30;13.77;;;11.60;99.90;;;;;;4929150;28;20046;-56
2022/06/01 00:50:39;;;;;;;12.20;10.90;;;11.70;99.90;;;;;;4944403;28;20027;-57
2022/06/01 00:53:07;;;;;;;10.63;9.63;;;11.70;99.90;;;;;;4927975;28;20039;-56
2022/06/01 00:55:41;;;;;;;16.02;14.30;;;11.70;99.90;;;;;;4927989;28;20052;-57
2022/06/01 00:58:34;;;;;;;14.20;12.68;;;11.70;99.90;;;;;;4927071;28;20043;-55
2022/06/01 01:01:00;;;;;;;16.75;14.98;;;11.70;99.90;;;;;;4930085;28;20046;-56
2022/06/01 01:03:33;;;;;;;16.20;14.32;;;11.70;99.90;;;;;;4949336;28;20055;-58
2022/06/01 01:06:21;;;;;;;17.67;15.13;;;11.70;99.90;;;;;;4945496;28;20061;-58
2022/06/01 01:08:49;;;;;;;17.10;13.48;;;11.70;99.90;;;;;;4929256;28;20656;-56
2022/06/01 01:11:20;;;;;;;15.63;12.90;;;11.70;99.90;;;;;;4932189;28;20551;-57
2022/06/01 01:13:48;;;;;;;18.33;16.15;;;11.70;99.90;;;;;;4918052;28;20046;-56
2022/06/01 01:16:16;;;;;;;15.90;14.20;;;11.70;99.90;;;;;;4950866;28;20047;-57
2022/06/01 01:18:45;;;;;;;20.05;16.95;;;11.60;99.90;;;;;;4916980;28;20059;-56
2022/06/01 01:21:32;;;;;;;16.25;14.65;;;11.60;99.90;;;;;;4946803;28;20066;-56
2022/06/01 01:23:57;;;;;;;18.05;16.25;;;11.50;99.90;;;;;;4947049;28;20223;-57
2022/06/01 01:26:25;;;;;;;19.80;17.80;;;11.50;99.90;;;;;;4947327;28;20459;-57
2022/06/01 01:28:52;;;;;;;16.40;14.63;;;11.50;99.90;;;;;;4949656;28;20066;-56
2022/06/01 01:31:24;;;;;;;16.60;14.93;;;11.50;99.90;;;;;;4930578;28;20234;-56
2022/06/01 01:33:52;;;;;;;16.17;14.48;;;11.60;99.90;;;;;;4949205;28;20963;-58
2022/06/01 01:36:23;;;;;;;19.80;17.13;;;11.60;99.90;;;;;;4924949;28;20035;-55
2022/06/01 01:38:56;;;;;;;19.80;17.75;;;11.60;99.90;;;;;;4940572;28;20050;-57
2022/06/01 01:41:28;;;;;;;16.60;13.48;;;11.60;99.90;;;;;;4926680;28;20518;-56
2022/06/01 01:44:02;;;;;;;16.92;15.23;;;11.60;99.90;;;;;;4932544;28;20896;-58
2022/06/01 01:46:30;;;;;;;17.13;13.52;;;11.60;99.90;;;;;;4928229;28;20046;-57
2022/06/01 01:48:55;;;;;;;19.70;15.65;;;11.60;99.90;;;;;;4931410;28;20049;-56
2022/06/01 01:51:23;;;;;;;18.10;16.20;;;11.60;99.90;;;;;;4925991;28;20043;-58
2022/06/01 01:53:50;;;;;;;18.08;16.17;;;11.60;99.90;;;;;;4937462;28;20043;-57
2022/06/01 01:56:35;;;;;;;22.15;17.20;;;11.50;99.90;;;;;;4955962;28;20042;-54
2022/06/01 01:59:18;;;;;;;18.17;16.23;;;11.50;99.90;;;;;;4943003;28;20051;-57
2022/06/01 02:01:55;;;;;;;15.32;13.75;;;11.40;99.90;;;;;;4934886;28;20062;-57
2022/06/01 02:07:25;;;;;;;19.00;17.00;;;11.40;99.90;;;;;;4953669;28;20073;-55
2022/06/01 02:12:42;;;;;;;20.15;17.50;;;11.20;99.90;;;;;;4937157;28;20078;-56
2022/06/01 02:15:20;;;;;;;18.98;16.98;;;11.10;99.90;;;;;;4937798;28;20045;-55
2022/06/01 02:17:50;;;;;;;15.30;12.90;;;11.10;99.90;;;;;;4951380;28;20218;-58
2022/06/01 02:20:26;;;;;;;20.33;18.20;;;11.10;99.90;;;;;;4924734;28;20054;-58
2022/06/01 02:22:53;;;;;;;15.85;14.25;;;11.00;99.90;;;;;;4948818;28;20097;-58
2022/06/01 02:25:19;;;;;;;18.65;16.85;;;11.00;99.90;;;;;;4939077;28;20054;-56
2022/06/01 02:27:46;;;;;;;20.83;17.42;;;11.00;99.90;;;;;;4935608;28;20154;-54
2022/06/01 02:30:20;;;;;;;19.13;17.20;;;10.90;99.90;;;;;;4954092;28;20128;-57
2022/06/01 02:32:48;;;;;;;16.35;14.73;;;10.90;99.90;;;;;;4952829;28;20046;-56
2022/06/01 02:35:18;;;;;;;19.70;17.55;;;10.90;99.90;;;;;;4947371;28;20058;-57
2022/06/01 02:37:47;;;;;;;19.05;17.05;;;10.80;99.90;;;;;;4925005;28;20474;-56
2022/06/01 02:40:18;;;;;;;21.98;17.88;;;10.80;99.90;;;;;;4957914;28;20062;-54
2022/06/01 02:42:46;;;;;;;19.17;17.17;;;10.80;99.90;;;;;;4949551;28;20993;-57
2022/06/01 02:45:13;;;;;;;17.58;15.77;;;10.80;99.90;;;;;;4947764;28;20074;-58
2022/06/01 02:47:41;;;;;;;20.23;17.48;;;10.80;99.90;;;;;;4955195;28;20042;-58
2022/06/01 02:50:10;;;;;;;21.27;17.80;;;10.80;99.90;;;;;;4957486;28;20050;-57
2022/06/01 02:52:36;;;;;;;19.45;17.33;;;10.80;99.90;;;;;;4939726;28;20034;-56
2022/06/01 02:55:05;;;;;;;19.60;17.48;;;10.80;99.90;;;;;;4942638;28;20089;-57
2022/06/01 02:57:32;;;;;;;19.75;17.10;;;10.70;99.90;;;;;;4935621;28;20059;-56
2022/06/01 02:59:58;;;;;;;18.75;16.75;;;10.70;99.90;;;;;;4929365;28;20047;-55
2022/06/01 03:02:25;;;;;;;20.10;17.95;;;10.70;99.90;;;;;;4939172;28;20046;-56
2022/06/01 03:04:52;;;;;;;16.02;14.43;;;10.70;99.90;;;;;;4939534;28;20069;-56
2022/06/01 03:07:18;;;;;;;18.90;16.45;;;10.60;99.90;;;;;;4933148;28;20105;-58
2022/06/01 03:09:44;;;;;;;17.95;16.05;;;10.60;99.90;;;;;;4926428;28;20051;-55
2022/06/01 03:12:10;;;;;;;20.50;18.30;;;10.60;99.90;;;;;;4960451;28;20162;-56
2022/06/01 03:14:37;;;;;;;17.40;15.60;;;10.60;99.90;;;;;;4940894;28;20540;-55
2022/06/01 03:17:04;;;;;;;22.33;20.02;;;10.60;99.90;;;;;;4942956;28;20073;-58
2022/06/01 03:19:30;;;;;;;25.88;20.75;;;10.60;99.90;;;;;;4946086;28;20054;-56
2022/06/01 03:21:55;;;;;;;18.92;17.00;;;10.60;99.90;;;;;;4962666;28;20192;-58
2022/06/01 03:24:21;;;;;;;19.58;17.48;;;10.70;99.90;;;;;;4938572;28;21605;-57
2022/06/01 03:26:47;;;;;;;14.48;12.80;;;10.70;99.90;;;;;;4926614;28;20054;-57
2022/06/01 03:29:13;;;;;;;21.70;19.42;;;10.70;99.90;;;;;;4936108;28;20089;-57
2022/06/01 03:31:39;;;;;;;22.67;19.92;;;10.80;99.90;;;;;;4933576;28;20038;-58
2022/06/01 03:34:05;;;;;;;16.33;14.65;;;10.80;99.90;;;;;;4928476;28;20053;-56
2022/06/01 03:36:31;;;;;;;22.23;19.27;;;10.80;99.90;;;;;;4944874;28;20038;-56
2022/06/01 03:38:57;;;;;;;15.25;13.65;;;10.90;99.90;;;;;;4945546;28;20094;-56
2022/06/01 03:41:27;;;;;;;22.85;19.85;;;10.90;99.90;;;;;;4920041;28;20051;-57
2022/06/01 03:46:38;;;;;;;18.35;16.13;;;11.00;99.90;;;;;;4944225;28;20078;-56
2022/06/01 03:49:03;;;;;;;17.75;15.93;;;11.00;99.90;;;;;;4944897;28;20129;-56
2022/06/01 03:51:29;;;;;;;18.20;16.20;;;11.10;99.90;;;;;;4948202;28;20046;-58
2022/06/01 03:53:55;;;;;;;19.40;17.38;;;11.10;99.90;;;;;;4955079;28;20043;-56
2022/06/01 03:56:22;;;;;;;23.05;19.55;;;11.20;99.90;;;;;;4959926;28;20038;-58
2022/06/01 03:58:50;;;;;;;16.98;15.18;;;11.20;99.90;;;;;;4945481;28;20352;-57
2022/06/01 04:01:17;;;;;;;20.00;17.77;;;11.20;99.90;;;;;;4962527;28;22583;-58
2022/06/01 04:03:43;;;;;;;25.80;21.77;;;11.20;99.90;;;;;;4940729;28;20051;-56
2022/06/01 04:06:09;;;;;;;23.25;20.10;;;11.30;99.90;;;;;;4943937;28;20094;-57
2022/06/01 04:08:34;;;;;;;16.42;14.77;;;11.40;99.90;;;;;;4960816;28;20059;-57
2022/06/01 04:11:00;;;;;;;19.45;17.30;;;11.30;99.90;;;;;;4937812;28;20230;-57
2022/06/01 04:13:27;;;;;;;23.33;20.92;;;11.40;99.90;;;;;;4942956;28;20043;-57
2022/06/01 04:15:53;;;;;;;22.33;18.25;;;11.40;99.90;;;;;;4960912;28;20106;-57
2022/06/01 04:18:19;;;;;;;20.10;18.10;;;11.40;99.90;;;;;;4939624;28;20133;-58
2022/06/01 04:20:47;;;;;;;16.13;14.43;;;11.40;99.90;;;;;;4945427;28;20423;-55
2022/06/01 04:23:13;;;;;;;16.98;15.13;;;11.50;99.90;;;;;;4939461;28;20042;-58
2022/06/01 04:25:39;;;;;;;25.70;22.27;;;11.60;99.90;;;;;;4938169;28;20055;-54
2022/06/01 04:28:05;;;;;;;24.58;20.10;;;11.60;99.90;;;;;;4927659;28;20043;-56
2022/06/01 04:30:31;;;;;;;21.80;19.50;;;11.60;99.90;;;;;;4928586;28;20054;-58
2022/06/01 04:32:57;;;;;;;25.27;22.58;;;11.70;99.90;;;;;;4954287;28;20071;-59
2022/06/01 04:35:24;;;;;;;25.17;22.58;;;11.70;99.90;;;;;;4929454;28;20051;-59
2022/06/01 04:37:50;;;;;;;22.42;20.02;;;11.70;99.90;;;;;;4944960;28;20174;-59
2022/06/01 04:40:18;;;;;;;22.95;20.50;;;11.70;99.90;;;;;;4948518;28;20808;-52
2022/06/01 04:42:44;;;;;;;22.17;19.83;;;11.70;99.90;;;;;;4956094;23;20631;-52
2022/06/01 04:45:13;;;;;;;22.38;20.15;;;11.70;99.90;;;;;;4934745;28;20034;-54
2022/06/01 04:47:39;;;;;;;15.65;14.05;;;11.70;99.90;;;;;;4947634;28;20046;-53
2022/06/01 04:50:06;;;;;;;22.80;20.27;;;11.70;99.90;;;;;;4935675;28;20413;-53
2022/06/01 04:52:32;;;;;;;19.70;17.30;;;11.70;99.90;;;;;;4921104;28;20185;-55
2022/06/01 04:54:58;;;;;;;18.48;16.58;;;11.70;99.90;;;;;;4957170;28;20121;-55
2022/06/01 04:57:24;;;;;;;22.13;19.52;;;11.70;99.90;;;;;;4955190;28;20043;-55
2022/06/01 04:59:50;;;;;;;21.63;18.83;;;11.70;99.90;;;;;;4957281;28;20039;-55
2022/06/01 05:02:16;;;;;;;21.80;19.50;;;11.80;99.90;;;;;;4924140;28;20093;-54
2022/06/01 05:04:42;;;;;;;20.38;18.20;;;11.80;99.90;;;;;;4924423;28;20038;-56
2022/06/01 05:07:08;;;;;;;18.95;16.45;;;11.80;99.90;;;;;;4936348;28;20502;-55
2022/06/01 05:09:34;;;;;;;20.42;18.25;;;11.80;99.90;;;;;;4943684;28;20046;-53
2022/06/01 05:11:59;;;;;;;16.40;14.82;;;11.80;99.90;;;;;;4941414;28;20250;-54
2022/06/01 05:14:25;;;;;;;21.70;19.27;;;11.80;99.90;;;;;;4941802;28;20051;-52
2022/06/01 05:16:51;;;;;;;18.02;16.15;;;11.80;99.90;;;;;;4939638;28;20042;-55
2022/06/01 05:19:18;;;;;;;23.40;20.90;;;11.90;99.90;;;;;;4923657;28;20410;-55
2022/06/01 05:21:44;;;;;;;25.23;22.52;;;11.90;99.90;;;;;;4955509;28;20046;-56
2022/06/01 05:24:10;;;;;;;22.60;19.27;;;11.90;99.90;;;;;;4943625;28;20046;-57
2022/06/01 05:26:36;;;;;;;25.55;22.70;;;11.90;99.90;;;;;;4937644;28;20123;-57
2022/06/01 05:29:02;;;;;;;25.10;22.30;;;11.90;99.90;;;;;;4959923;28;20105;-54
2022/06/01 05:31:28;;;;;;;20.65;18.48;;;11.90;99.90;;;;;;4935816;28;20486;-56
2022/06/01 05:33:54;;;;;;;22.20;19.83;;;11.80;99.90;;;;;;4923176;28;20266;-53
2022/06/01 05:36:20;;;;;;;23.98;21.58;;;11.90;99.90;;;;;;4941601;28;20352;-53
2022/06/01 05:38:46;;;;;;;18.15;16.38;;;11.90;99.90;;;;;;4935537;28;20039;-56
2022/06/01 05:41:12;;;;;;;24.48;21.75;;;11.90;99.90;;;;;;4914027;28;20094;-58
2022/06/01 05:43:38;;;;;;;24.17;21.67;;;11.90;99.90;;;;;;4936846;28;20093;-54
2022/06/01 05:46:04;;;;;;;24.48;21.95;;;11.90;99.90;;;;;;4925159;28;20050;-55
2022/06/01 05:48:30;;;;;;;18.77;16.67;;;11.90;99.90;;;;;;4944432;28;20118;-55
2022/06/01 05:50:56;;;;;;;28.10;23.75;;;11.90;99.90;;;;;;4938732;28;20502;-55
2022/06/01 05:53:22;;;;;;;23.02;20.58;;;11.90;99.90;;;;;;4938548;28;20072;-55
2022/06/01 05:55:49;;;;;;;19.52;16.90;;;11.90;99.90;;;;;;4941654;28;20482;-57
2022/06/01 05:58:18;;;;;;;18.83;16.60;;;11.90;99.90;;;;;;4942454;28;20114;-55
2022/06/01 06:00:45;;;;;;;21.10;16.65;;;11.90;99.90;;;;;;4940153;28;20125;-54
2022/06/01 06:03:11;;;;;;;20.27;17.92;;;11.90;99.90;;;;;;4923249;28;20082;-55
2022/06/01 06:08:22;;;;;;;;;;;11.90;99.90;;;;;;4937527;28;20047;-56
2022/06/01 06:10:48;;;;;;;20.38;18.15;;;11.90;99.90;;;;;;4934418;28;19960;-56
2022/06/01 06:13:14;;;;;;;14.77;12.65;;;11.90;99.90;;;;;;4954098;28;20050;-54
2022/06/01 06:15:40;;;;;;;19.20;15.93;;;12.00;99.90;;;;;;4945405;28;20049;-54
2022/06/01 06:18:06;;;;;;;19.60;17.17;;;12.00;99.90;;;;;;4949221;28;20038;-52
2022/06/01 06:20:33;;;;;;;18.50;14.27;;;12.10;99.90;;;;;;4942977;28;20050;-52
2022/06/01 06:22:59;;;;;;;15.90;13.75;;;12.20;99.90;;;;;;4940098;28;20058;-56
2022/06/01 06:25:25;;;;;;;16.80;13.82;;;12.20;99.90;;;;;;4929860;28;20051;-54
2022/06/01 06:27:51;;;;;;;18.27;15.10;;;12.30;99.90;;;;;;4913920;28;20133;-55
2022/06/01 06:30:19;;;;;;;15.50;12.00;;;12.40;99.90;;;;;;4937471;28;20042;-56
2022/06/01 06:32:45;;;;;;;13.68;12.27;;;12.40;99.90;;;;;;4928667;28;20079;-54
2022/06/01 06:35:11;;;;;;;14.55;12.50;;;12.40;99.90;;;;;;4939909;28;20043;-54
2022/06/01 06:37:37;;;;;;;14.38;12.93;;;12.40;99.90;;;;;;4938077;28;20287;-55
2022/06/01 06:40:04;;;;;;;12.65;10.77;;;12.50;99.90;;;;;;4950553;28;20051;-54
2022/06/01 06:42:31;;;;;;;11.93;10.80;;;12.50;99.90;;;;;;4945061;28;20089;-56
2022/06/01 06:44:56;;;;;;;12.73;10.70;;;12.60;99.90;;;;;;4936257;28;20046;-55
2022/06/01 06:47:22;;;;;;;11.13;10.02;;;12.60;99.90;;;;;;4943040;28;20043;-54
2022/06/01 06:49:48;;;;;;;12.13;10.88;;;12.60;99.90;;;;;;4959009;28;20039;-55
2022/06/01 06:52:14;;;;;;;11.63;8.75;;;12.70;99.90;;;;;;4910638;28;20043;-58
2022/06/01 06:54:40;;;;;;;14.00;10.75;;;12.70;99.90;;;;;;4936303;28;20118;-57
2022/06/01 06:57:07;;;;;;;12.43;11.13;;;12.60;99.90;;;;;;4939991;28;20038;-54
2022/06/01 06:59:32;;;;;;;11.63;10.52;;;12.60;99.90;;;;;;4956677;28;20150;-55
2022/06/01 07:01:58;;;;;;;11.85;10.43;;;12.70;99.90;;;;;;4940503;28;20542;-56
2022/06/01 07:04:24;;;;;;;12.25;10.80;;;12.70;99.90;;;;;;4938539;28;20100;-55
2022/06/01 07:06:49;;;;;;;14.23;11.00;;;12.70;99.90;;;;;;4901786;28;20054;-56
2022/06/01 07:09:15;;;;;;;12.82;11.48;;;12.70;99.90;;;;;;4934323;28;20058;-54
2022/06/01 07:11:41;;;;;;;16.05;12.05;;;12.70;99.90;;;;;;4930898;28;20042;-55
2022/06/01 07:14:07;;;;;;;12.93;11.45;;;12.80;99.90;;;;;;4945896;28;20030;-56
2022/06/01 07:16:35;;;;;;;12.23;10.73;;;12.80;99.90;;;;;;4943002;28;20358;-54
2022/06/01 07:19:04;;;;;;;13.63;11.95;;;12.80;99.90;;;;;;4944515;28;20051;-56
2022/06/01 07:21:30;;;;;;;12.00;10.80;;;12.80;99.90;;;;;;4943928;28;20054;-55
2022/06/01 07:23:56;;;;;;;15.43;13.07;;;12.80;99.90;;;;;;4962619;28;20054;-54
2022/06/01 07:26:31;;;;;;;13.77;10.90;;;12.80;99.90;;;;;;4930283;28;20133;-56
2022/06/01 07:28:57;;;;;;;12.65;11.35;;;12.80;99.90;;;;;;4945383;28;20042;-55
2022/06/01 07:31:22;;;;;;;13.82;11.50;;;12.90;99.90;;;;;;4947710;28;20482;-55
2022/06/01 07:33:51;;;;;;;13.43;11.98;;;12.80;99.90;;;;;;4944204;28;20122;-57
2022/06/01 07:36:18;;;;;;;13.05;11.68;;;12.90;99.90;;;;;;4924489;28;20038;-58
2022/06/01 07:44:25;;;;;;;10.77;9.30;;;13.30;99.90;;;;;;4957946;28;20058;-52
2022/06/01 07:46:52;;;;;;;9.95;8.93;;;13.50;99.90;;;;;;4927128;28;20038;-51
2022/06/01 07:49:18;;;;;;;8.57;7.78;;;13.50;99.90;;;;;;4931538;28;20502;-55
2022/06/01 07:51:44;;;;;;;9.90;7.15;;;13.60;99.90;;;;;;4945211;28;20270;-56
2022/06/01 07:54:11;;;;;;;7.32;6.53;;;13.80;99.90;;;;;;4959586;28;20190;-57
2022/06/01 07:56:37;;;;;;;5.13;4.38;;;13.90;99.90;;;;;;4959543;28;20071;-56
2022/06/01 07:59:05;;;;;;;6.40;5.80;;;14.00;99.90;;;;;;4959609;28;20122;-55
2022/06/01 08:01:32;;;;;;;5.38;4.00;;;14.20;99.90;;;;;;4940298;28;20981;-57
2022/06/01 08:03:59;;;;;;;5.88;4.90;;;14.30;99.90;;;;;;4956675;28;20134;-55
2022/06/01 08:06:27;;;;;;;8.55;6.47;;;14.50;99.90;;;;;;4958619;28;20042;-58
2022/06/01 08:08:53;;;;;;;6.65;6.03;;;14.60;99.90;;;;;;4957135;28;20053;-58
2022/06/01 08:11:20;;;;;;;5.95;5.25;;;14.80;99.90;;;;;;4942726;28;21881;-54
2022/06/01 08:13:46;;;;;;;5.75;4.93;;;14.90;99.90;;;;;;4944257;28;20441;-55
2022/06/01 08:16:12;;;;;;;5.28;4.78;;;15.00;99.90;;;;;;4944062;28;21818;-55
2022/06/01 08:18:38;;;;;;;6.53;5.10;;;15.10;99.90;;;;;;4941404;28;20050;-55
2022/06/01 08:21:07;;;;;;;5.07;4.43;;;15.30;99.90;;;;;;4941768;28;20054;-58
2022/06/01 08:23:33;;;;;;;6.43;5.07;;;15.60;99.90;;;;;;4956057;28;20069;-57
2022/06/01 08:25:59;;;;;;;8.05;5.18;;;15.90;99.90;;;;;;4931027;28;20429;-56
2022/06/01 08:28:25;;;;;;;8.73;5.82;;;16.00;99.90;;;;;;4934495;28;20039;-57
2022/06/01 08:30:52;;;;;;;5.80;5.15;;;16.10;99.90;;;;;;4938589;28;20078;-55
2022/06/01 08:33:20;;;;;;;5.82;4.47;;;16.00;99.90;;;;;;4954127;28;20535;-56
2022/06/01 08:35:48;;;;;;;7.15;5.00;;;15.70;99.90;;;;;;4941962;28;20054;-58
2022/06/01 08:38:15;;;;;;;4.85;3.85;;;15.40;99.90;;;;;;4936565;28;20050;-58
2022/06/01 08:41:08;;;;;;;6.25;5.05;;;15.30;99.90;;;;;;4939442;28;20126;-58
2022/06/01 08:43:50;;;;;;;5.45;4.30;;;15.20;99.90;;;;;;4936843;28;20260;-56
2022/06/01 08:46:17;;;;;;;5.35;3.67;;;15.00;99.90;;;;;;4936742;28;20509;-55
2022/06/01 08:49:00;;;;;;;3.63;3.22;;;14.90;99.90;;;;;;4941942;28;20141;-55
2022/06/01 08:51:29;;;;;;;5.05;3.80;;;14.90;99.90;;;;;;4938624;28;20566;-55
2022/06/01 08:53:58;;;;;;;4.90;3.80;;;14.80;99.90;;;;;;4940159;28;20699;-57
2022/06/01 08:56:47;;;;;;;4.45;3.80;;;14.80;99.90;;;;;;4934548;28;20521;-56
2022/06/01 08:59:13;;;;;;;6.03;3.83;;;14.80;99.90;;;;;;4935026;28;20446;-56
2022/06/01 09:01:52;;;;;;;4.85;4.00;;;14.80;99.90;;;;;;4941753;28;20034;-59
2022/06/01 09:04:30;;;;;;;4.90;4.40;;;14.80;99.90;;;;;;4937559;28;20461;-57
2022/06/01 09:07:09;;;;;;;7.32;4.80;;;15.20;99.90;;;;;;4948461;28;20052;-58
2022/06/01 09:10:04;;;;;;;5.45;4.90;;;15.50;99.90;;;;;;4935668;28;20235;-57
2022/06/01 09:12:32;;;;;;;6.00;4.90;;;15.70;99.90;;;;;;4926576;28;20046;-56
2022/06/01 09:15:04;;;;;;;6.13;5.25;;;15.70;99.90;;;;;;4937434;28;20057;-55
2022/06/01 09:17:31;;;;;;;4.30;3.88;;;16.00;99.90;;;;;;4936316;28;20078;-59
2022/06/01 09:22:42;;;;;;;7.00;5.63;;;16.40;99.90;;;;;;4940818;28;20475;-55
2022/06/01 09:25:17;;;;;;;9.27;5.78;;;16.30;99.90;;;;;;4941593;28;20134;-53
2022/06/01 09:27:48;;;;;;;6.30;4.10;;;16.20;99.90;;;;;;4933749;28;20046;-58
2022/06/01 09:30:22;;;;;;;6.35;4.60;;;16.00;99.90;;;;;;4934177;28;20341;-54
2022/06/01 09:33:03;;;;;;;4.85;3.90;;;15.80;99.90;;;;;;4949776;28;20214;-53
2022/06/01 09:35:38;;;;;;;14.77;6.38;;;15.80;99.90;;;;;;4960049;28;20383;-58
2022/06/01 09:38:11;;;;;;;22.90;8.25;;;15.60;99.90;;;;;;4922470;28;20083;-56
2022/06/01 09:40:37;;;;;;;18.58;8.07;;;15.40;99.90;;;;;;4956552;28;20070;-56
2022/06/01 09:43:03;;;;;;;6.43;3.45;;;15.40;99.90;;;;;;4937163;28;20490;-55
2022/06/01 09:45:53;;;;;;;5.35;3.33;;;15.40;99.90;;;;;;4937487;28;20175;-53
2022/06/01 09:48:35;;;;;;;5.03;3.40;;;15.40;99.90;;;;;;4926216;28;20562;-57
2022/06/01 09:51:18;;;;;;;6.07;3.50;;;15.50;99.90;;;;;;4931043;28;20446;-55
2022/06/01 09:54:09;;;;;;;4.10;3.22;;;15.50;99.90;;;;;;4935511;28;20057;-57
2022/06/01 09:56:41;;;;;;;4.40;4.00;;;15.50;99.90;;;;;;4914303;28;20086;-58
2022/06/01 10:08:21;;;;;;;4.95;4.03;;;15.30;99.90;;;;;;4958916;28;20061;-56
2022/06/01 10:11:04;;;;;;;4.63;4.00;;;15.20;99.90;;;;;;4931369;28;20054;-56
2022/06/01 10:13:38;;;;;;;4.32;3.25;;;15.20;99.90;;;;;;4928676;28;20436;-57
2022/06/01 10:16:14;;;;;;;18.05;8.15;;;15.10;99.90;;;;;;4937519;28;20684;-59
2022/06/01 10:18:41;;;;;;;11.65;4.50;;;15.00;99.90;;;;;;4942073;28;20046;-56
2022/06/01 10:21:11;;;;;;;12.57;4.70;;;14.80;99.90;;;;;;4947883;28;20070;-56
2022/06/01 10:23:51;;;;;;;4.53;3.33;;;14.70;99.90;;;;;;4929927;28;20121;-57
2022/06/01 10:26:25;;;;;;;3.45;3.15;;;14.60;99.90;;;;;;4938934;28;20043;-59
2022/06/01 10:28:52;;;;;;;;;;;14.60;99.90;;;;;;4933885;28;20510;-58
2022/06/01 10:31:34;;;;;;;3.70;3.00;;;14.50;99.90;;;;;;4937768;28;19917;-55
2022/06/01 10:34:08;;;;;;;4.60;3.28;;;14.40;99.90;;;;;;4935427;28;20421;-57
2022/06/01 10:37:05;;;;;;;6.40;3.17;;;14.30;99.90;;;;;;4948066;28;20421;-55
2022/06/01 10:39:52;;;;;;;4.65;2.72;;;14.30;99.90;;;;;;4953686;28;20434;-55
2022/06/01 10:45:33;;;;;;;7.25;3.28;;;14.30;99.90;;;;;;4934527;28;20047;-55
2022/06/01 10:48:08;;;;;;;9.10;3.55;;;14.20;99.90;;;;;;4943965;28;20047;-55
2022/06/01 10:50:53;;;;;;;5.55;3.20;;;14.10;99.90;;;;;;4947462;28;20301;-53
2022/06/01 10:53:50;;;;;;;4.28;2.90;;;14.00;99.90;;;;;;4948870;28;20050;-57
2022/06/01 10:56:19;;;;;;;6.35;3.63;;;14.00;99.90;;;;;;4964436;23;20151;-59
2022/06/01 10:58:46;;;;;;;6.93;3.42;;;13.90;99.90;;;;;;4923394;28;20191;-59
2022/06/01 11:01:29;;;;;;;5.80;3.35;;;13.90;99.90;;;;;;4938705;28;20070;-55
2022/06/01 11:04:17;;;;;;;5.28;3.33;;;13.80;99.90;;;;;;4962436;28;20038;-56
2022/06/01 11:06:57;;;;;;;4.55;2.97;;;13.80;99.90;;;;;;4935007;28;20053;-59
2022/06/01 11:09:31;;;;;;;4.32;3.42;;;13.80;99.90;;;;;;4940114;28;20505;-57
2022/06/01 11:12:11;;;;;;;4.03;2.97;;;13.70;99.90;;;;;;4937981;28;20106;-60
2022/06/01 11:14:40;;;;;;;5.55;3.00;;;13.70;99.90;;;;;;4943736;28;20176;-55
2022/06/01 11:17:43;;;;;;;5.25;3.00;;;13.80;99.90;;;;;;4941732;28;20118;-59
2022/06/01 11:20:30;;;;;;;4.28;3.10;;;13.70;99.90;;;;;;4963565;28;20045;-53
2022/06/01 11:23:21;;;;;;;5.32;2.70;;;13.60;99.90;;;;;;4946159;28;20313;-56
2022/06/01 11:26:26;;;;;;;4.70;2.40;;;13.60;99.90;;;;;;4960479;28;20034;-55
2022/06/01 11:29:20;;;;;;;3.67;2.70;;;13.50;99.90;;;;;;4942985;28;20039;-57
2022/06/01 11:31:52;;;;;;;8.00;3.20;;;13.40;99.90;;;;;;4925579;28;20046;-60
2022/06/01 11:34:33;;;;;;;4.97;2.58;;;13.30;99.90;;;;;;4929707;28;20066;-59
2022/06/01 11:37:14;;;;;;;2.67;2.15;;;13.40;99.90;;;;;;4937890;28;20117;-59
2022/06/01 11:40:09;;;;;;;2.53;2.25;;;13.30;99.90;;;;;;4939057;28;20512;-58
2022/06/01 11:42:54;;;;;;;4.20;1.92;;;13.40;99.90;;;;;;4951532;28;20055;-58
2022/06/01 11:45:39;;;;;;;2.13;1.58;;;13.30;99.90;;;;;;4963825;28;20039;-54
2022/06/01 11:48:12;;;;;;;4.00;1.60;;;13.30;99.90;;;;;;4943038;28;20402;-55
2022/06/01 11:51:16;;;;;;;3.78;2.00;;;13.30;99.90;;;;;;4960028;28;20054;-58
2022/06/01 11:53:41;;;;;;;3.15;1.58;;;13.20;99.90;;;;;;4946333;28;20066;-59
2022/06/01 11:56:34;;;;;;;2.42;1.70;;;13.10;99.90;;;;;;4909397;28;1106228;-56
2022/06/01 11:59:12;;;;;;;3.60;2.15;;;13.00;99.90;;;;;;4937348;29;20275;-58
2022/06/01 12:01:41;;;;;;;4.32;2.50;;;12.90;99.90;;;;;;4942616;28;20051;-58
2022/06/01 12:04:18;;;;;;;3.65;2.33;;;12.90;99.90;;;;;;4943718;28;20057;-55
2022/06/01 12:06:57;;;;;;;2.97;2.30;;;12.80;99.90;;;;;;4944929;28;20051;-56
2022/06/01 12:09:35;;;;;;;5.20;2.83;;;12.70;99.90;;;;;;4946068;28;20174;-60
2022/06/01 12:12:01;;;;;;;4.03;2.90;;;12.60;99.90;;;;;;4938814;28;20094;-56
2022/06/01 12:14:38;;;;;;;4.40;2.83;;;12.50;99.90;;;;;;4919840;28;20097;-56
2022/06/01 12:17:20;;;;;;;5.72;3.28;;;12.60;99.90;;;;;;4945870;28;20215;-57
2022/06/01 12:19:48;;;;;;;5.88;3.63;;;12.60;99.90;;;;;;4942163;28;20042;-56
2022/06/01 12:28:39;;;;;;;9.52;7.50;;;13.30;99.90;;;;;;4954719;28;20051;-57
2022/06/01 12:31:13;;;;;;;7.93;6.57;;;14.00;99.90;;;;;;4928158;28;20105;-58
2022/06/01 12:34:01;;;;;;;8.13;6.43;;;14.70;99.90;;;;;;4939080;28;20102;-58
2022/06/01 12:36:32;;;;;;;6.88;5.88;;;15.40;99.90;;;;;;4933128;28;20043;-58
2022/06/01 12:38:58;;;;;;;5.85;5.03;;;16.00;99.90;;;;;;4958589;28;20492;-58
2022/06/01 12:41:28;;;;;;;5.10;4.50;;;16.50;99.90;;;;;;4938713;28;20122;-56
2022/06/01 12:43:58;;;;;;;5.05;3.70;;;16.90;99.90;;;;;;4963733;28;20285;-54
2022/06/01 12:46:28;;;;;;;4.07;3.08;;;17.30;99.90;;;;;;4946268;28;20047;-56
2022/06/01 12:49:21;;;;;;;3.90;3.15;;;17.30;99.90;;;;;;4942545;28;20043;-60
2022/06/01 12:51:49;;;;;;;4.47;3.00;;;17.10;99.90;;;;;;4930370;28;20043;-59
2022/06/01 12:54:30;;;;;;;4.85;2.78;;;17.00;99.90;;;;;;4932459;28;20054;-60
2022/06/01 12:56:56;;;;;;;3.72;2.58;;;16.60;99.90;;;;;;4936149;28;20422;-61
2022/06/01 12:59:22;;;;;;;3.78;2.53;;;16.70;99.90;;;;;;4936560;28;20042;-59
2022/06/01 13:01:56;;;;;;;5.50;2.88;;;16.60;99.90;;;;;;4918512;28;20059;-58
2022/06/01 13:04:23;;;;;;;3.20;2.90;;;16.60;99.90;;;;;;4948709;28;20047;-57
2022/06/01 13:06:49;;;;;;;4.97;3.33;;;16.90;99.90;;;;;;4948890;28;20043;-61
2022/06/01 13:09:28;;;;;;;4.93;3.60;;;17.10;99.90;;;;;;4956540;28;20215;-59
2022/06/01 13:12:00;;;;;;;3.65;2.83;;;17.00;99.90;;;;;;4944214;28;20038;-59
2022/06/01 13:14:28;;;;;;;3.70;3.08;;;16.90;99.90;;;;;;4923648;28;20042;-62
2022/06/01 13:17:00;;;;;;;5.43;3.38;;;16.70;99.90;;;;;;4920018;28;20490;-58
2022/06/01 13:19:30;;;;;;;6.22;4.05;;;16.40;99.90;;;;;;4936925;28;20406;-60
2022/06/01 13:22:25;;;;;;;4.50;3.40;;;16.00;99.90;;;;;;4935330;28;20057;-59
2022/06/01 13:25:28;;;;;;;5.20;3.60;;;15.70;99.90;;;;;;4930257;28;20129;-60
2022/06/01 13:27:54;;;;;;;3.20;2.72;;;15.30;99.90;;;;;;4920221;28;20065;-58
2022/06/01 13:30:20;;;;;;;3.33;2.58;;;15.10;99.90;;;;;;4932424;28;20035;-58
2022/06/01 13:32:50;;;;;;;4.85;2.50;;;15.00;99.90;;;;;;4929744;28;21484;-56